sensor_id;sensor_type;location;lat;lon;timestamp;P1;durP1;ratioP1;P2;durP2;ratioP2
18296;SDS011;18066;52.106;5.534;2023-08-07T00:40:52;4.43;;;1.23;;
18296;SDS011;18066;52.106;5.534;2023-08-07T00:43:48;7.43;;;1.45;;
18296;SDS011;18066;52.106;5.534;2023-08-07T00:46:49;5.67;;;1.33;;
18296;SDS011;18066;52.106;5.534;2023-08-07T01:07:50;6.93;;;2.03;;
18296;SDS011;18066;52.106;5.534;2023-08-07T01:10:52;4.82;;;1.05;;
18296;SDS011;18066;52.106;5.534;2023-08-07T01:18:21;6.97;;;1.75;;
18296;SDS011;18066;52.106;5.534;2023-08-07T02:08:18;10.02;;;2.25;;
18296;SDS011;18066;52.106;5.534;2023-08-07T03:08:11;8.00;;;1.60;;
18296;SDS011;18066;52.106;5.534;2023-08-07T03:39:07;5.63;;;1.43;;
18296;SDS011;18066;52.106;5.534;2023-08-07T03:45:57;5.65;;;1.40;;
18296;SDS011;18066;52.106;5.534;2023-08-07T03:58:50;4.85;;;1.10;;
18296;SDS011;18066;52.106;5.534;2023-08-07T04:02:15;4.57;;;1.38;;
18296;SDS011;18066;52.106;5.534;2023-08-07T04:43:02;9.23;;;1.70;;
18296;SDS011;18066;52.106;5.534;2023-08-07T04:44:47;7.17;;;1.43;;
18296;SDS011;18066;52.106;5.534;2023-08-07T07:30:41;7.00;;;2.00;;
18296;SDS011;18066;52.106;5.534;2023-08-07T08:28:23;12.40;;;2.45;;
18296;SDS011;18066;52.106;5.534;2023-08-07T08:30:52;7.25;;;2.05;;
18296;SDS011;18066;52.106;5.534;2023-08-07T08:36:27;13.35;;;2.47;;
18296;SDS011;18066;52.106;5.534;2023-08-07T08:39:13;8.80;;;2.30;;
18296;SDS011;18066;52.106;5.534;2023-08-07T08:42:19;9.65;;;2.30;;
18296;SDS011;18066;52.106;5.534;2023-08-07T08:45:18;8.00;;;2.17;;
18296;SDS011;18066;52.106;5.534;2023-08-07T08:47:47;8.63;;;2.67;;
18296;SDS011;18066;52.106;5.534;2023-08-07T08:50:38;12.77;;;2.42;;
18296;SDS011;18066;52.106;5.534;2023-08-07T08:53:34;8.63;;;1.95;;
18296;SDS011;18066;52.106;5.534;2023-08-07T08:56:38;4.63;;;1.73;;
18296;SDS011;18066;52.106;5.534;2023-08-07T09:16:00;9.80;;;1.92;;
18296;SDS011;18066;52.106;5.534;2023-08-07T09:19:03;18.60;;;2.33;;
18296;SDS011;18066;52.106;5.534;2023-08-07T09:32:16;9.23;;;2.00;;
18296;SDS011;18066;52.106;5.534;2023-08-07T09:38:14;6.30;;;1.80;;
18296;SDS011;18066;52.106;5.534;2023-08-07T12:19:17;6.78;;;1.75;;
18296;SDS011;18066;52.106;5.534;2023-08-07T12:21:44;3.85;;;1.50;;
18296;SDS011;18066;52.106;5.534;2023-08-07T12:24:12;8.30;;;1.67;;
18296;SDS011;18066;52.106;5.534;2023-08-07T12:26:39;3.78;;;1.45;;
18296;SDS011;18066;52.106;5.534;2023-08-07T12:29:06;6.55;;;1.98;;
18296;SDS011;18066;52.106;5.534;2023-08-07T12:31:33;8.20;;;2.28;;
18296;SDS011;18066;52.106;5.534;2023-08-07T12:34:00;2.90;;;1.58;;
18296;SDS011;18066;52.106;5.534;2023-08-07T12:36:28;5.35;;;1.13;;
18296;SDS011;18066;52.106;5.534;2023-08-07T12:38:55;2.10;;;1.10;;
18296;SDS011;18066;52.106;5.534;2023-08-07T12:41:22;3.95;;;1.20;;
18296;SDS011;18066;52.106;5.534;2023-08-07T12:43:48;6.43;;;1.48;;
18296;SDS011;18066;52.106;5.534;2023-08-07T12:46:16;2.15;;;1.10;;
18296;SDS011;18066;52.106;5.534;2023-08-07T12:48:43;3.10;;;1.10;;
18296;SDS011;18066;52.106;5.534;2023-08-07T12:51:10;5.80;;;1.67;;
18296;SDS011;18066;52.106;5.534;2023-08-07T12:53:38;2.53;;;1.20;;
18296;SDS011;18066;52.106;5.534;2023-08-07T12:56:05;3.58;;;1.20;;
18296;SDS011;18066;52.106;5.534;2023-08-07T12:58:32;4.05;;;1.25;;
18296;SDS011;18066;52.106;5.534;2023-08-07T14:11:14;2.45;;;0.82;;
18296;SDS011;18066;52.106;5.534;2023-08-07T14:13:41;3.25;;;0.80;;
18296;SDS011;18066;52.106;5.534;2023-08-07T14:16:09;3.15;;;1.40;;
18296;SDS011;18066;52.106;5.534;2023-08-07T14:18:35;1.75;;;0.85;;
18296;SDS011;18066;52.106;5.534;2023-08-07T14:35:46;9.60;;;1.27;;
18296;SDS011;18066;52.106;5.534;2023-08-07T14:38:13;2.08;;;0.82;;
18296;SDS011;18066;52.106;5.534;2023-08-07T14:40:40;2.13;;;0.82;;
18296;SDS011;18066;52.106;5.534;2023-08-07T14:43:08;2.72;;;0.95;;
18296;SDS011;18066;52.106;5.534;2023-08-07T16:23:11;1.35;;;1.15;;
18296;SDS011;18066;52.106;5.534;2023-08-07T16:25:53;1.75;;;1.20;;
18296;SDS011;18066;52.106;5.534;2023-08-07T16:28:52;2.40;;;1.02;;
18296;SDS011;18066;52.106;5.534;2023-08-07T16:31:45;2.10;;;1.17;;
18296;SDS011;18066;52.106;5.534;2023-08-07T16:34:31;1.75;;;1.30;;
18296;SDS011;18066;52.106;5.534;2023-08-07T16:43:20;5.10;;;1.70;;
18296;SDS011;18066;52.106;5.534;2023-08-07T16:45:56;3.65;;;1.30;;
18296;SDS011;18066;52.106;5.534;2023-08-07T16:48:23;1.88;;;1.20;;
18296;SDS011;18066;52.106;5.534;2023-08-07T16:53:51;3.92;;;1.73;;
18296;SDS011;18066;52.106;5.534;2023-08-07T16:56:20;2.83;;;1.63;;
18296;SDS011;18066;52.106;5.534;2023-08-07T17:22:48;1.45;;;1.10;;
18296;SDS011;18066;52.106;5.534;2023-08-07T18:19:33;4.90;;;1.60;;
18296;SDS011;18066;52.106;5.534;2023-08-07T18:56:15;1.55;;;1.00;;
18296;SDS011;18066;52.106;5.534;2023-08-07T18:58:42;1.67;;;1.00;;
18296;SDS011;18066;52.106;5.534;2023-08-07T19:01:09;1.80;;;1.13;;
18296;SDS011;18066;52.106;5.534;2023-08-07T19:03:36;1.10;;;0.93;;
18296;SDS011;18066;52.106;5.534;2023-08-07T19:06:03;0.98;;;0.80;;
18296;SDS011;18066;52.106;5.534;2023-08-07T19:08:31;1.20;;;0.95;;
18296;SDS011;18066;52.106;5.534;2023-08-07T19:10:58;1.02;;;0.85;;
18296;SDS011;18066;52.106;5.534;2023-08-07T19:13:27;2.15;;;1.20;;
18296;SDS011;18066;52.106;5.534;2023-08-07T19:15:54;5.50;;;1.27;;
18296;SDS011;18066;52.106;5.534;2023-08-07T19:18:21;2.53;;;1.35;;
18296;SDS011;18066;52.106;5.534;2023-08-07T19:20:48;1.10;;;0.88;;
18296;SDS011;18066;52.106;5.534;2023-08-07T19:23:14;4.10;;;1.13;;
18296;SDS011;18066;52.106;5.534;2023-08-07T19:25:41;2.53;;;1.25;;
18296;SDS011;18066;52.106;5.534;2023-08-07T19:28:08;2.58;;;1.17;;
18296;SDS011;18066;52.106;5.534;2023-08-07T19:30:38;3.72;;;1.15;;
18296;SDS011;18066;52.106;5.534;2023-08-07T19:33:06;2.03;;;1.40;;
18296;SDS011;18066;52.106;5.534;2023-08-07T19:35:33;2.75;;;1.45;;
18296;SDS011;18066;52.106;5.534;2023-08-07T19:38:01;2.20;;;1.50;;
18296;SDS011;18066;52.106;5.534;2023-08-07T19:40:29;1.98;;;1.38;;
18296;SDS011;18066;52.106;5.534;2023-08-07T19:42:55;2.10;;;1.23;;
18296;SDS011;18066;52.106;5.534;2023-08-07T19:45:22;1.42;;;1.20;;
18296;SDS011;18066;52.106;5.534;2023-08-07T19:47:50;1.92;;;1.08;;
18296;SDS011;18066;52.106;5.534;2023-08-07T19:50:17;1.75;;;1.33;;
18296;SDS011;18066;52.106;5.534;2023-08-07T19:52:44;2.40;;;1.15;;
18296;SDS011;18066;52.106;5.534;2023-08-07T19:55:11;3.33;;;1.33;;
18296;SDS011;18066;52.106;5.534;2023-08-07T19:57:40;4.70;;;1.50;;
18296;SDS011;18066;52.106;5.534;2023-08-07T20:00:07;3.40;;;1.48;;
18296;SDS011;18066;52.106;5.534;2023-08-07T20:02:36;3.30;;;1.35;;
18296;SDS011;18066;52.106;5.534;2023-08-07T20:05:04;3.22;;;1.58;;
18296;SDS011;18066;52.106;5.534;2023-08-07T20:07:32;3.10;;;1.70;;
18296;SDS011;18066;52.106;5.534;2023-08-07T20:09:59;1.48;;;1.35;;
18296;SDS011;18066;52.106;5.534;2023-08-07T20:12:26;2.92;;;1.55;;
18296;SDS011;18066;52.106;5.534;2023-08-07T20:14:53;3.53;;;1.30;;
18296;SDS011;18066;52.106;5.534;2023-08-07T20:17:20;2.15;;;1.17;;
18296;SDS011;18066;52.106;5.534;2023-08-07T20:19:46;2.55;;;1.48;;
18296;SDS011;18066;52.106;5.534;2023-08-07T20:22:15;1.30;;;1.20;;
18296;SDS011;18066;52.106;5.534;2023-08-07T20:24:42;3.47;;;1.40;;
18296;SDS011;18066;52.106;5.534;2023-08-07T20:27:09;2.85;;;1.23;;
18296;SDS011;18066;52.106;5.534;2023-08-07T20:29:35;4.97;;;1.30;;
18296;SDS011;18066;52.106;5.534;2023-08-07T20:32:02;1.52;;;1.30;;
18296;SDS011;18066;52.106;5.534;2023-08-07T20:34:30;1.60;;;1.50;;
18296;SDS011;18066;52.106;5.534;2023-08-07T20:36:57;2.10;;;1.48;;
18296;SDS011;18066;52.106;5.534;2023-08-07T20:39:25;2.15;;;1.40;;
18296;SDS011;18066;52.106;5.534;2023-08-07T20:41:52;2.47;;;1.27;;
18296;SDS011;18066;52.106;5.534;2023-08-07T20:44:20;2.55;;;1.33;;
18296;SDS011;18066;52.106;5.534;2023-08-07T20:46:47;2.85;;;1.58;;
18296;SDS011;18066;52.106;5.534;2023-08-07T20:49:14;2.45;;;1.50;;
18296;SDS011;18066;52.106;5.534;2023-08-07T20:51:40;3.53;;;1.80;;
18296;SDS011;18066;52.106;5.534;2023-08-07T20:54:07;1.55;;;1.42;;
18296;SDS011;18066;52.106;5.534;2023-08-07T20:56:35;1.92;;;1.67;;
18296;SDS011;18066;52.106;5.534;2023-08-07T20:59:02;5.57;;;2.13;;
18296;SDS011;18066;52.106;5.534;2023-08-07T21:01:29;2.97;;;1.73;;
18296;SDS011;18066;52.106;5.534;2023-08-07T21:03:56;2.80;;;1.65;;
18296;SDS011;18066;52.106;5.534;2023-08-07T21:06:23;2.97;;;1.60;;
18296;SDS011;18066;52.106;5.534;2023-08-07T21:08:50;3.05;;;1.73;;
18296;SDS011;18066;52.106;5.534;2023-08-07T21:11:16;3.00;;;1.75;;
18296;SDS011;18066;52.106;5.534;2023-08-07T21:13:45;3.03;;;2.08;;
18296;SDS011;18066;52.106;5.534;2023-08-07T21:16:11;3.63;;;2.17;;
18296;SDS011;18066;52.106;5.534;2023-08-07T21:18:39;1.48;;;1.38;;
18296;SDS011;18066;52.106;5.534;2023-08-07T21:21:06;3.03;;;2.05;;
18296;SDS011;18066;52.106;5.534;2023-08-07T21:23:32;4.85;;;2.30;;
18296;SDS011;18066;52.106;5.534;2023-08-07T21:25:59;2.25;;;2.03;;
18296;SDS011;18066;52.106;5.534;2023-08-07T21:28:26;2.35;;;1.70;;
18296;SDS011;18066;52.106;5.534;2023-08-07T21:30:54;3.75;;;2.15;;
18296;SDS011;18066;52.106;5.534;2023-08-07T21:33:21;1.98;;;1.63;;
18296;SDS011;18066;52.106;5.534;2023-08-07T21:35:49;5.40;;;2.35;;
18296;SDS011;18066;52.106;5.534;2023-08-07T21:38:16;4.15;;;2.42;;
18296;SDS011;18066;52.106;5.534;2023-08-07T21:40:43;4.60;;;2.53;;
18296;SDS011;18066;52.106;5.534;2023-08-07T21:43:10;2.80;;;2.17;;
18296;SDS011;18066;52.106;5.534;2023-08-07T21:45:36;4.03;;;2.30;;
18296;SDS011;18066;52.106;5.534;2023-08-07T21:48:05;2.70;;;2.00;;
18296;SDS011;18066;52.106;5.534;2023-08-07T21:50:32;4.22;;;2.50;;
18296;SDS011;18066;52.106;5.534;2023-08-07T21:53:07;3.00;;;2.30;;
18296;SDS011;18066;52.106;5.534;2023-08-07T21:55:35;4.15;;;2.20;;
18296;SDS011;18066;52.106;5.534;2023-08-07T21:58:07;4.15;;;2.45;;
18296;SDS011;18066;52.106;5.534;2023-08-07T22:00:45;3.45;;;2.80;;
18296;SDS011;18066;52.106;5.534;2023-08-07T22:06:51;4.07;;;2.67;;
18296;SDS011;18066;52.106;5.534;2023-08-07T22:12:23;5.35;;;2.92;;
18296;SDS011;18066;52.106;5.534;2023-08-07T22:15:09;3.53;;;2.85;;
18296;SDS011;18066;52.106;5.534;2023-08-07T22:17:49;4.50;;;2.90;;
18296;SDS011;18066;52.106;5.534;2023-08-07T22:23:50;9.27;;;3.17;;
18296;SDS011;18066;52.106;5.534;2023-08-07T22:26:50;3.22;;;2.72;;
18296;SDS011;18066;52.106;5.534;2023-08-07T22:29:21;4.80;;;2.97;;
18296;SDS011;18066;52.106;5.534;2023-08-07T22:32:28;3.92;;;2.70;;
18296;SDS011;18066;52.106;5.534;2023-08-07T22:35:32;3.55;;;2.88;;
18296;SDS011;18066;52.106;5.534;2023-08-07T22:41:21;4.80;;;3.30;;
18296;SDS011;18066;52.106;5.534;2023-08-07T22:47:21;5.57;;;3.30;;
18296;SDS011;18066;52.106;5.534;2023-08-07T22:50:12;4.85;;;3.50;;
18296;SDS011;18066;52.106;5.534;2023-08-07T22:53:11;3.25;;;2.78;;
18296;SDS011;18066;52.106;5.534;2023-08-07T22:55:49;6.55;;;3.33;;
18296;SDS011;18066;52.106;5.534;2023-08-07T22:58:53;4.90;;;2.80;;
18296;SDS011;18066;52.106;5.534;2023-08-07T23:02:03;5.53;;;3.13;;
18296;SDS011;18066;52.106;5.534;2023-08-07T23:05:03;5.78;;;3.50;;
18296;SDS011;18066;52.106;5.534;2023-08-07T23:07:54;3.63;;;3.17;;
18296;SDS011;18066;52.106;5.534;2023-08-07T23:10:33;10.60;;;4.13;;
18296;SDS011;18066;52.106;5.534;2023-08-07T23:13:09;7.25;;;3.33;;
18296;SDS011;18066;52.106;5.534;2023-08-07T23:16:04;7.70;;;3.55;;
18296;SDS011;18066;52.106;5.534;2023-08-07T23:18:52;7.10;;;3.05;;
18296;SDS011;18066;52.106;5.534;2023-08-07T23:21:50;4.70;;;3.13;;
18296;SDS011;18066;52.106;5.534;2023-08-07T23:24:26;4.78;;;3.05;;
18296;SDS011;18066;52.106;5.534;2023-08-07T23:27:51;4.35;;;3.40;;
18296;SDS011;18066;52.106;5.534;2023-08-07T23:34:03;7.82;;;3.50;;
18296;SDS011;18066;52.106;5.534;2023-08-07T23:37:52;4.43;;;3.30;;
18296;SDS011;18066;52.106;5.534;2023-08-07T23:40:05;5.45;;;3.25;;
18296;SDS011;18066;52.106;5.534;2023-08-07T23:42:55;7.30;;;2.92;;
18296;SDS011;18066;52.106;5.534;2023-08-07T23:48:50;9.07;;;3.42;;
18296;SDS011;18066;52.106;5.534;2023-08-07T23:51:50;5.25;;;2.95;;
18296;SDS011;18066;52.106;5.534;2023-08-07T23:58:19;6.70;;;2.65;;
